sensor_id;sensor_type;location;lat;lon;timestamp;P1;durP1;ratioP1;P2;durP2;ratioP2
37451;SDS011;23314;51.114;6.900;2023-06-24T07:02:33;13.35;;;11.60;;
37451;SDS011;23314;51.114;6.900;2023-06-24T07:04:58;12.23;;;10.68;;
37451;SDS011;23314;51.114;6.900;2023-06-24T07:07:24;15.63;;;11.73;;
37451;SDS011;23314;51.114;6.900;2023-06-24T07:09:49;12.63;;;11.20;;
37451;SDS011;23314;51.114;6.900;2023-06-24T07:12:15;12.30;;;11.00;;
37451;SDS011;23314;51.114;6.900;2023-06-24T07:14:40;14.20;;;11.00;;
37451;SDS011;23314;51.114;6.900;2023-06-24T07:17:06;15.85;;;11.25;;
37451;SDS011;23314;51.114;6.900;2023-06-24T07:19:32;11.98;;;9.48;;
37451;SDS011;23314;51.114;6.900;2023-06-24T07:21:57;12.32;;;9.70;;
37451;SDS011;23314;51.114;6.900;2023-06-24T07:24:23;18.20;;;10.52;;
37451;SDS011;23314;51.114;6.900;2023-06-24T07:26:48;11.68;;;9.40;;
37451;SDS011;23314;51.114;6.900;2023-06-24T07:29:13;14.30;;;10.65;;
37451;SDS011;23314;51.114;6.900;2023-06-24T07:31:39;11.57;;;9.02;;
37451;SDS011;23314;51.114;6.900;2023-06-24T07:34:04;14.43;;;9.93;;
37451;SDS011;23314;51.114;6.900;2023-06-24T07:36:30;10.82;;;9.73;;
37451;SDS011;23314;51.114;6.900;2023-06-24T07:38:55;10.43;;;9.43;;
37451;SDS011;23314;51.114;6.900;2023-06-24T07:41:21;12.65;;;9.95;;
37451;SDS011;23314;51.114;6.900;2023-06-24T07:43:46;11.48;;;9.18;;
37451;SDS011;23314;51.114;6.900;2023-06-24T07:46:11;10.00;;;8.98;;
37451;SDS011;23314;51.114;6.900;2023-06-24T07:48:37;9.45;;;8.02;;
37451;SDS011;23314;51.114;6.900;2023-06-24T07:51:02;9.82;;;8.63;;
37451;SDS011;23314;51.114;6.900;2023-06-24T07:53:27;9.95;;;8.95;;
37451;SDS011;23314;51.114;6.900;2023-06-24T07:55:53;10.25;;;8.85;;
37451;SDS011;23314;51.114;6.900;2023-06-24T07:58:18;10.15;;;8.75;;
37451;SDS011;23314;51.114;6.900;2023-06-24T08:00:46;10.13;;;7.75;;
37451;SDS011;23314;51.114;6.900;2023-06-24T08:03:12;8.05;;;7.20;;
37451;SDS011;23314;51.114;6.900;2023-06-24T08:05:38;8.98;;;7.28;;
37451;SDS011;23314;51.114;6.900;2023-06-24T08:08:04;12.70;;;7.22;;
37451;SDS011;23314;51.114;6.900;2023-06-24T08:10:30;8.50;;;7.35;;
37451;SDS011;23314;51.114;6.900;2023-06-24T08:12:55;12.88;;;7.65;;
37451;SDS011;23314;51.114;6.900;2023-06-24T08:15:21;8.13;;;7.32;;
37451;SDS011;23314;51.114;6.900;2023-06-24T08:17:50;10.45;;;7.72;;
37451;SDS011;23314;51.114;6.900;2023-06-24T08:20:20;10.70;;;7.10;;
37451;SDS011;23314;51.114;6.900;2023-06-24T08:22:46;8.35;;;7.53;;
37451;SDS011;23314;51.114;6.900;2023-06-24T08:25:11;7.88;;;6.55;;
37451;SDS011;23314;51.114;6.900;2023-06-24T08:27:36;9.38;;;6.72;;
37451;SDS011;23314;51.114;6.900;2023-06-24T08:30:03;9.85;;;7.10;;
37451;SDS011;23314;51.114;6.900;2023-06-24T08:32:32;9.70;;;7.70;;
37451;SDS011;23314;51.114;6.900;2023-06-24T08:34:57;9.35;;;7.93;;
37451;SDS011;23314;51.114;6.900;2023-06-24T08:37:23;7.28;;;6.55;;
37451;SDS011;23314;51.114;6.900;2023-06-24T08:39:48;10.45;;;8.98;;
37451;SDS011;23314;51.114;6.900;2023-06-24T08:42:14;8.50;;;7.63;;
37451;SDS011;23314;51.114;6.900;2023-06-24T08:44:39;10.60;;;7.03;;
37451;SDS011;23314;51.114;6.900;2023-06-24T08:47:04;7.78;;;7.00;;
37451;SDS011;23314;51.114;6.900;2023-06-24T08:49:30;7.53;;;6.63;;
37451;SDS011;23314;51.114;6.900;2023-06-24T08:52:08;9.77;;;7.50;;
37451;SDS011;23314;51.114;6.900;2023-06-24T08:54:38;8.43;;;7.43;;
37451;SDS011;23314;51.114;6.900;2023-06-24T08:57:05;8.88;;;7.97;;
37451;SDS011;23314;51.114;6.900;2023-06-24T08:59:36;9.07;;;7.32;;
37451;SDS011;23314;51.114;6.900;2023-06-24T09:02:02;12.68;;;7.50;;
37451;SDS011;23314;51.114;6.900;2023-06-24T09:04:28;8.85;;;7.88;;
37451;SDS011;23314;51.114;6.900;2023-06-24T09:06:54;8.18;;;7.38;;
37451;SDS011;23314;51.114;6.900;2023-06-24T09:09:19;14.48;;;7.72;;
37451;SDS011;23314;51.114;6.900;2023-06-24T09:11:52;8.88;;;7.97;;
37451;SDS011;23314;51.114;6.900;2023-06-24T09:14:21;8.50;;;7.70;;
37451;SDS011;23314;51.114;6.900;2023-06-24T09:16:54;10.00;;;9.00;;
37451;SDS011;23314;51.114;6.900;2023-06-24T09:19:21;9.30;;;8.40;;
37451;SDS011;23314;51.114;6.900;2023-06-24T09:21:54;10.25;;;7.40;;
37451;SDS011;23314;51.114;6.900;2023-06-24T09:24:33;9.10;;;8.13;;
37451;SDS011;23314;51.114;6.900;2023-06-24T09:26:59;9.60;;;7.28;;
37451;SDS011;23314;51.114;6.900;2023-06-24T09:29:25;11.77;;;8.80;;
37451;SDS011;23314;51.114;6.900;2023-06-24T09:31:52;10.63;;;8.65;;
37451;SDS011;23314;51.114;6.900;2023-06-24T09:34:18;12.85;;;9.40;;
37451;SDS011;23314;51.114;6.900;2023-06-24T09:36:45;10.15;;;8.45;;
37451;SDS011;23314;51.114;6.900;2023-06-24T09:39:16;10.40;;;8.40;;
37451;SDS011;23314;51.114;6.900;2023-06-24T09:41:41;15.18;;;8.55;;
37451;SDS011;23314;51.114;6.900;2023-06-24T09:44:10;10.75;;;8.70;;
37451;SDS011;23314;51.114;6.900;2023-06-24T09:46:36;10.63;;;8.77;;
37451;SDS011;23314;51.114;6.900;2023-06-24T09:49:04;9.45;;;7.55;;
37451;SDS011;23314;51.114;6.900;2023-06-24T09:51:31;10.57;;;7.00;;
37451;SDS011;23314;51.114;6.900;2023-06-24T09:54:02;8.68;;;7.47;;
37451;SDS011;23314;51.114;6.900;2023-06-24T09:56:30;7.45;;;6.78;;
37451;SDS011;23314;51.114;6.900;2023-06-24T09:58:57;7.20;;;5.40;;
37451;SDS011;23314;51.114;6.900;2023-06-24T10:01:22;6.80;;;5.80;;
37451;SDS011;23314;51.114;6.900;2023-06-24T10:03:48;7.32;;;5.78;;
37451;SDS011;23314;51.114;6.900;2023-06-24T10:06:14;9.88;;;5.88;;
37451;SDS011;23314;51.114;6.900;2023-06-24T10:08:39;6.85;;;6.15;;
37451;SDS011;23314;51.114;6.900;2023-06-24T10:11:05;6.22;;;5.60;;
37451;SDS011;23314;51.114;6.900;2023-06-24T10:13:30;7.15;;;5.45;;
37451;SDS011;23314;51.114;6.900;2023-06-24T10:15:56;6.97;;;5.47;;
37451;SDS011;23314;51.114;6.900;2023-06-24T10:18:31;6.22;;;5.03;;
37451;SDS011;23314;51.114;6.900;2023-06-24T10:20:56;5.95;;;5.20;;
37451;SDS011;23314;51.114;6.900;2023-06-24T10:23:28;8.55;;;5.07;;
37451;SDS011;23314;51.114;6.900;2023-06-24T10:25:55;12.27;;;5.80;;
37451;SDS011;23314;51.114;6.900;2023-06-24T10:28:20;7.10;;;5.28;;
37451;SDS011;23314;51.114;6.900;2023-06-24T10:30:55;6.20;;;5.13;;
37451;SDS011;23314;51.114;6.900;2023-06-24T10:33:21;7.38;;;4.72;;
37451;SDS011;23314;51.114;6.900;2023-06-24T10:35:48;4.95;;;4.50;;
37451;SDS011;23314;51.114;6.900;2023-06-24T10:38:15;6.13;;;4.90;;
37451;SDS011;23314;51.114;6.900;2023-06-24T10:40:44;5.65;;;5.03;;
37451;SDS011;23314;51.114;6.900;2023-06-24T10:43:28;10.82;;;6.05;;
37451;SDS011;23314;51.114;6.900;2023-06-24T10:45:55;6.60;;;4.90;;
37451;SDS011;23314;51.114;6.900;2023-06-24T10:48:21;6.13;;;4.65;;
37451;SDS011;23314;51.114;6.900;2023-06-24T10:50:47;8.50;;;5.55;;
37451;SDS011;23314;51.114;6.900;2023-06-24T10:53:14;6.95;;;4.60;;
37451;SDS011;23314;51.114;6.900;2023-06-24T10:55:40;7.47;;;4.85;;
37451;SDS011;23314;51.114;6.900;2023-06-24T10:58:09;6.93;;;5.10;;
37451;SDS011;23314;51.114;6.900;2023-06-24T11:00:35;9.25;;;5.40;;
37451;SDS011;23314;51.114;6.900;2023-06-24T11:03:10;8.30;;;5.40;;
37451;SDS011;23314;51.114;6.900;2023-06-24T11:05:40;6.13;;;4.40;;
37451;SDS011;23314;51.114;6.900;2023-06-24T11:08:07;4.63;;;4.22;;
37451;SDS011;23314;51.114;6.900;2023-06-24T11:10:33;4.90;;;4.05;;
37451;SDS011;23314;51.114;6.900;2023-06-24T11:13:07;5.97;;;4.70;;
37451;SDS011;23314;51.114;6.900;2023-06-24T11:15:32;7.38;;;4.30;;
37451;SDS011;23314;51.114;6.900;2023-06-24T11:18:01;5.97;;;3.92;;
37451;SDS011;23314;51.114;6.900;2023-06-24T11:20:27;6.03;;;3.63;;
37451;SDS011;23314;51.114;6.900;2023-06-24T11:22:54;3.65;;;3.35;;
37451;SDS011;23314;51.114;6.900;2023-06-24T11:25:21;4.30;;;3.90;;
37451;SDS011;23314;51.114;6.900;2023-06-24T11:27:48;7.18;;;3.90;;
37451;SDS011;23314;51.114;6.900;2023-06-24T11:30:16;5.30;;;3.28;;
37451;SDS011;23314;51.114;6.900;2023-06-24T11:32:42;4.50;;;3.53;;
37451;SDS011;23314;51.114;6.900;2023-06-24T11:35:09;4.03;;;3.55;;
37451;SDS011;23314;51.114;6.900;2023-06-24T11:37:36;4.68;;;3.88;;
37451;SDS011;23314;51.114;6.900;2023-06-24T11:40:06;5.43;;;3.90;;
37451;SDS011;23314;51.114;6.900;2023-06-24T11:42:32;3.80;;;3.50;;
37451;SDS011;23314;51.114;6.900;2023-06-24T11:45:01;3.80;;;3.50;;
37451;SDS011;23314;51.114;6.900;2023-06-24T11:47:30;3.03;;;2.80;;
37451;SDS011;23314;51.114;6.900;2023-06-24T11:49:57;3.13;;;2.88;;
37451;SDS011;23314;51.114;6.900;2023-06-24T11:55:00;3.40;;;2.75;;
37451;SDS011;23314;51.114;6.900;2023-06-24T12:00:20;3.78;;;3.25;;
37451;SDS011;23314;51.114;6.900;2023-06-24T12:02:48;3.10;;;2.80;;
37451;SDS011;23314;51.114;6.900;2023-06-24T12:05:25;4.70;;;3.60;;
37451;SDS011;23314;51.114;6.900;2023-06-24T12:07:55;3.60;;;3.00;;
37451;SDS011;23314;51.114;6.900;2023-06-24T12:10:22;3.25;;;2.95;;
37451;SDS011;23314;51.114;6.900;2023-06-24T12:12:48;5.35;;;3.60;;
37451;SDS011;23314;51.114;6.900;2023-06-24T12:15:13;2.95;;;2.72;;
37451;SDS011;23314;51.114;6.900;2023-06-24T12:17:38;3.42;;;3.22;;
37451;SDS011;23314;51.114;6.900;2023-06-24T12:20:04;3.53;;;3.17;;
37451;SDS011;23314;51.114;6.900;2023-06-24T12:22:30;2.95;;;2.75;;
37451;SDS011;23314;51.114;6.900;2023-06-24T12:24:56;4.10;;;3.70;;
37451;SDS011;23314;51.114;6.900;2023-06-24T12:27:21;3.72;;;3.30;;
37451;SDS011;23314;51.114;6.900;2023-06-24T12:29:46;3.63;;;3.30;;
37451;SDS011;23314;51.114;6.900;2023-06-24T12:32:12;3.55;;;3.25;;
37451;SDS011;23314;51.114;6.900;2023-06-24T12:34:37;4.93;;;3.38;;
37451;SDS011;23314;51.114;6.900;2023-06-24T12:37:02;4.50;;;3.90;;
37451;SDS011;23314;51.114;6.900;2023-06-24T12:39:28;4.82;;;3.45;;
37451;SDS011;23314;51.114;6.900;2023-06-24T12:41:53;3.50;;;3.20;;
37451;SDS011;23314;51.114;6.900;2023-06-24T12:44:19;4.15;;;3.85;;
37451;SDS011;23314;51.114;6.900;2023-06-24T12:46:44;5.18;;;3.60;;
37451;SDS011;23314;51.114;6.900;2023-06-24T12:49:09;4.47;;;3.75;;
37451;SDS011;23314;51.114;6.900;2023-06-24T12:51:34;6.35;;;4.55;;
37451;SDS011;23314;51.114;6.900;2023-06-24T12:54:00;5.18;;;3.50;;
37451;SDS011;23314;51.114;6.900;2023-06-24T12:56:25;3.83;;;3.55;;
37451;SDS011;23314;51.114;6.900;2023-06-24T12:58:50;5.18;;;3.78;;
37451;SDS011;23314;51.114;6.900;2023-06-24T13:01:16;3.83;;;3.50;;
37451;SDS011;23314;51.114;6.900;2023-06-24T13:03:41;6.13;;;3.92;;
37451;SDS011;23314;51.114;6.900;2023-06-24T13:06:07;5.00;;;4.20;;
37451;SDS011;23314;51.114;6.900;2023-06-24T13:08:32;5.80;;;4.00;;
37451;SDS011;23314;51.114;6.900;2023-06-24T13:10:57;3.92;;;3.60;;
37451;SDS011;23314;51.114;6.900;2023-06-24T13:13:22;3.90;;;3.60;;
37451;SDS011;23314;51.114;6.900;2023-06-24T13:15:48;3.78;;;3.00;;
37451;SDS011;23314;51.114;6.900;2023-06-24T13:18:14;3.95;;;3.65;;
37451;SDS011;23314;51.114;6.900;2023-06-24T13:20:39;4.38;;;3.65;;
37451;SDS011;23314;51.114;6.900;2023-06-24T13:23:04;4.40;;;3.80;;
37451;SDS011;23314;51.114;6.900;2023-06-24T13:25:30;3.63;;;3.08;;
37451;SDS011;23314;51.114;6.900;2023-06-24T13:27:55;3.75;;;3.33;;
37451;SDS011;23314;51.114;6.900;2023-06-24T13:30:20;3.97;;;3.30;;
37451;SDS011;23314;51.114;6.900;2023-06-24T13:32:46;3.20;;;2.90;;
37451;SDS011;23314;51.114;6.900;2023-06-24T13:35:13;3.88;;;3.50;;
37451;SDS011;23314;51.114;6.900;2023-06-24T13:37:38;3.78;;;3.47;;
37451;SDS011;23314;51.114;6.900;2023-06-24T13:40:04;5.00;;;3.30;;
37451;SDS011;23314;51.114;6.900;2023-06-24T13:42:30;3.85;;;3.10;;
37451;SDS011;23314;51.114;6.900;2023-06-24T13:44:56;3.50;;;2.78;;
37451;SDS011;23314;51.114;6.900;2023-06-24T13:47:21;2.97;;;2.78;;
37451;SDS011;23314;51.114;6.900;2023-06-24T13:49:48;5.38;;;4.93;;
37451;SDS011;23314;51.114;6.900;2023-06-24T13:52:13;3.63;;;3.33;;
37451;SDS011;23314;51.114;6.900;2023-06-24T13:54:38;2.90;;;2.67;;
37451;SDS011;23314;51.114;6.900;2023-06-24T13:57:04;3.60;;;2.88;;
37451;SDS011;23314;51.114;6.900;2023-06-24T13:59:29;2.60;;;2.40;;
37451;SDS011;23314;51.114;6.900;2023-06-24T14:01:54;3.25;;;2.50;;
37451;SDS011;23314;51.114;6.900;2023-06-24T14:04:20;4.97;;;2.47;;
37451;SDS011;23314;51.114;6.900;2023-06-24T14:06:45;2.90;;;2.40;;
37451;SDS011;23314;51.114;6.900;2023-06-24T14:09:11;2.85;;;2.35;;
37451;SDS011;23314;51.114;6.900;2023-06-24T14:11:37;5.32;;;2.60;;
37451;SDS011;23314;51.114;6.900;2023-06-24T14:14:02;2.60;;;2.40;;
37451;SDS011;23314;51.114;6.900;2023-06-24T14:16:27;2.95;;;2.72;;
37451;SDS011;23314;51.114;6.900;2023-06-24T14:18:53;4.60;;;2.72;;
37451;SDS011;23314;51.114;6.900;2023-06-24T14:21:18;4.85;;;2.50;;
37451;SDS011;23314;51.114;6.900;2023-06-24T14:23:43;2.72;;;2.53;;
37451;SDS011;23314;51.114;6.900;2023-06-24T14:26:09;5.95;;;3.28;;
37451;SDS011;23314;51.114;6.900;2023-06-24T14:28:34;2.80;;;2.60;;
37451;SDS011;23314;51.114;6.900;2023-06-24T14:31:00;2.53;;;2.42;;
37451;SDS011;23314;51.114;6.900;2023-06-24T14:33:25;2.63;;;2.42;;
37451;SDS011;23314;51.114;6.900;2023-06-24T14:35:50;4.50;;;2.53;;
37451;SDS011;23314;51.114;6.900;2023-06-24T14:38:16;2.60;;;2.50;;
37451;SDS011;23314;51.114;6.900;2023-06-24T14:40:41;3.47;;;2.70;;
37451;SDS011;23314;51.114;6.900;2023-06-24T14:43:06;2.92;;;2.70;;
37451;SDS011;23314;51.114;6.900;2023-06-24T14:45:32;2.85;;;2.65;;
37451;SDS011;23314;51.114;6.900;2023-06-24T14:47:57;2.70;;;2.50;;
37451;SDS011;23314;51.114;6.900;2023-06-24T14:50:23;2.70;;;2.50;;
37451;SDS011;23314;51.114;6.900;2023-06-24T14:52:48;2.60;;;2.40;;
37451;SDS011;23314;51.114;6.900;2023-06-24T14:55:14;4.68;;;2.90;;
37451;SDS011;23314;51.114;6.900;2023-06-24T14:57:39;3.00;;;2.80;;
37451;SDS011;23314;51.114;6.900;2023-06-24T15:00:08;4.40;;;2.90;;
37451;SDS011;23314;51.114;6.900;2023-06-24T15:02:34;2.90;;;2.70;;
37451;SDS011;23314;51.114;6.900;2023-06-24T15:05:00;2.60;;;2.38;;
37451;SDS011;23314;51.114;6.900;2023-06-24T15:07:26;2.70;;;2.50;;
37451;SDS011;23314;51.114;6.900;2023-06-24T15:09:52;2.35;;;2.25;;
37451;SDS011;23314;51.114;6.900;2023-06-24T15:12:17;2.67;;;2.47;;
37451;SDS011;23314;51.114;6.900;2023-06-24T15:14:43;3.15;;;2.95;;
37451;SDS011;23314;51.114;6.900;2023-06-24T15:17:10;2.55;;;2.45;;
37451;SDS011;23314;51.114;6.900;2023-06-24T15:19:35;3.22;;;3.03;;
37451;SDS011;23314;51.114;6.900;2023-06-24T15:22:01;2.13;;;2.03;;
37451;SDS011;23314;51.114;6.900;2023-06-24T15:24:26;2.35;;;2.13;;
37451;SDS011;23314;51.114;6.900;2023-06-24T15:26:52;2.85;;;2.35;;
37451;SDS011;23314;51.114;6.900;2023-06-24T15:29:17;2.60;;;2.40;;
37451;SDS011;23314;51.114;6.900;2023-06-24T15:31:42;2.72;;;2.53;;
37451;SDS011;23314;51.114;6.900;2023-06-24T15:34:09;2.50;;;2.30;;
37451;SDS011;23314;51.114;6.900;2023-06-24T15:36:35;2.20;;;2.10;;
37451;SDS011;23314;51.114;6.900;2023-06-24T15:39:00;2.47;;;2.30;;
37451;SDS011;23314;51.114;6.900;2023-06-24T15:41:26;2.38;;;2.28;;
37451;SDS011;23314;51.114;6.900;2023-06-24T15:43:51;2.33;;;2.22;;
37451;SDS011;23314;51.114;6.900;2023-06-24T15:46:16;2.22;;;2.13;;
37451;SDS011;23314;51.114;6.900;2023-06-24T15:48:42;2.28;;;2.17;;
37451;SDS011;23314;51.114;6.900;2023-06-24T15:51:07;4.05;;;2.50;;
37451;SDS011;23314;51.114;6.900;2023-06-24T15:53:32;2.28;;;2.17;;
37451;SDS011;23314;51.114;6.900;2023-06-24T15:55:59;2.28;;;2.17;;
37451;SDS011;23314;51.114;6.900;2023-06-24T15:58:24;2.30;;;2.20;;
37451;SDS011;23314;51.114;6.900;2023-06-24T16:00:49;2.60;;;2.40;;
37451;SDS011;23314;51.114;6.900;2023-06-24T16:03:15;2.15;;;2.05;;
37451;SDS011;23314;51.114;6.900;2023-06-24T16:05:40;2.15;;;2.05;;
37451;SDS011;23314;51.114;6.900;2023-06-24T16:08:06;2.67;;;2.53;;
37451;SDS011;23314;51.114;6.900;2023-06-24T16:10:31;2.00;;;1.90;;
37451;SDS011;23314;51.114;6.900;2023-06-24T16:12:57;4.38;;;2.25;;
37451;SDS011;23314;51.114;6.900;2023-06-24T16:15:22;2.05;;;1.95;;
37451;SDS011;23314;51.114;6.900;2023-06-24T16:17:48;2.15;;;2.05;;
37451;SDS011;23314;51.114;6.900;2023-06-24T16:20:13;3.58;;;2.45;;
37451;SDS011;23314;51.114;6.900;2023-06-24T16:22:41;2.28;;;2.08;;
37451;SDS011;23314;51.114;6.900;2023-06-24T16:25:10;2.00;;;1.90;;
37451;SDS011;23314;51.114;6.900;2023-06-24T16:27:35;2.80;;;2.60;;
37451;SDS011;23314;51.114;6.900;2023-06-24T16:30:00;2.70;;;2.50;;
37451;SDS011;23314;51.114;6.900;2023-06-24T16:32:26;2.38;;;2.28;;
37451;SDS011;23314;51.114;6.900;2023-06-24T16:34:52;2.33;;;2.22;;
37451;SDS011;23314;51.114;6.900;2023-06-24T16:37:17;2.97;;;2.78;;
37451;SDS011;23314;51.114;6.900;2023-06-24T16:39:42;2.67;;;2.47;;
37451;SDS011;23314;51.114;6.900;2023-06-24T16:42:08;3.53;;;2.75;;
37451;SDS011;23314;51.114;6.900;2023-06-24T16:44:33;2.78;;;2.58;;
37451;SDS011;23314;51.114;6.900;2023-06-24T16:47:02;2.72;;;2.63;;
37451;SDS011;23314;51.114;6.900;2023-06-24T16:49:27;2.45;;;2.35;;
37451;SDS011;23314;51.114;6.900;2023-06-24T16:51:52;2.47;;;2.38;;
37451;SDS011;23314;51.114;6.900;2023-06-24T16:54:18;2.13;;;2.03;;
37451;SDS011;23314;51.114;6.900;2023-06-24T16:56:46;2.67;;;2.55;;
37451;SDS011;23314;51.114;6.900;2023-06-24T16:59:11;2.95;;;2.65;;
37451;SDS011;23314;51.114;6.900;2023-06-24T17:01:37;2.53;;;2.33;;
37451;SDS011;23314;51.114;6.900;2023-06-24T17:04:02;2.60;;;2.50;;
37451;SDS011;23314;51.114;6.900;2023-06-24T17:06:27;2.47;;;2.38;;
37451;SDS011;23314;51.114;6.900;2023-06-24T17:08:53;2.63;;;2.42;;
37451;SDS011;23314;51.114;6.900;2023-06-24T17:11:18;3.47;;;2.65;;
37451;SDS011;23314;51.114;6.900;2023-06-24T17:13:44;2.58;;;2.47;;
37451;SDS011;23314;51.114;6.900;2023-06-24T17:16:09;2.60;;;2.50;;
37451;SDS011;23314;51.114;6.900;2023-06-24T17:18:34;2.75;;;2.60;;
37451;SDS011;23314;51.114;6.900;2023-06-24T17:21:00;2.78;;;2.58;;
37451;SDS011;23314;51.114;6.900;2023-06-24T17:23:25;2.58;;;2.35;;
37451;SDS011;23314;51.114;6.900;2023-06-24T17:25:50;2.50;;;2.40;;
37451;SDS011;23314;51.114;6.900;2023-06-24T17:28:16;2.88;;;2.70;;
37451;SDS011;23314;51.114;6.900;2023-06-24T17:30:41;2.95;;;2.78;;
37451;SDS011;23314;51.114;6.900;2023-06-24T17:33:07;2.95;;;2.67;;
37451;SDS011;23314;51.114;6.900;2023-06-24T17:35:32;2.67;;;2.58;;
37451;SDS011;23314;51.114;6.900;2023-06-24T17:37:57;2.50;;;2.40;;
37451;SDS011;23314;51.114;6.900;2023-06-24T17:40:23;3.50;;;3.30;;
37451;SDS011;23314;51.114;6.900;2023-06-24T17:42:48;3.20;;;3.00;;
37451;SDS011;23314;51.114;6.900;2023-06-24T17:45:13;2.80;;;2.60;;
37451;SDS011;23314;51.114;6.900;2023-06-24T17:47:38;2.80;;;2.70;;
37451;SDS011;23314;51.114;6.900;2023-06-24T17:50:04;2.63;;;2.53;;
37451;SDS011;23314;51.114;6.900;2023-06-24T17:52:29;3.45;;;3.10;;
37451;SDS011;23314;51.114;6.900;2023-06-24T17:54:55;2.78;;;2.67;;
37451;SDS011;23314;51.114;6.900;2023-06-24T17:57:20;3.42;;;2.83;;
37451;SDS011;23314;51.114;6.900;2023-06-24T17:59:46;3.33;;;3.00;;
37451;SDS011;23314;51.114;6.900;2023-06-24T18:02:11;3.25;;;3.05;;
37451;SDS011;23314;51.114;6.900;2023-06-24T18:04:36;3.00;;;2.80;;
37451;SDS011;23314;51.114;6.900;2023-06-24T18:07:02;3.35;;;3.15;;
37451;SDS011;23314;51.114;6.900;2023-06-24T18:09:27;2.90;;;2.80;;
37451;SDS011;23314;51.114;6.900;2023-06-24T18:11:53;2.90;;;2.70;;
37451;SDS011;23314;51.114;6.900;2023-06-24T18:14:20;3.15;;;3.05;;
37451;SDS011;23314;51.114;6.900;2023-06-24T18:16:49;3.35;;;3.08;;
37451;SDS011;23314;51.114;6.900;2023-06-24T18:19:15;2.65;;;2.50;;
37451;SDS011;23314;51.114;6.900;2023-06-24T18:21:41;3.20;;;3.00;;
37451;SDS011;23314;51.114;6.900;2023-06-24T18:24:06;2.85;;;2.75;;
37451;SDS011;23314;51.114;6.900;2023-06-24T18:26:32;3.10;;;2.90;;
37451;SDS011;23314;51.114;6.900;2023-06-24T18:28:57;2.95;;;2.75;;
37451;SDS011;23314;51.114;6.900;2023-06-24T18:31:24;2.83;;;2.72;;
37451;SDS011;23314;51.114;6.900;2023-06-24T18:33:50;3.15;;;2.92;;
37451;SDS011;23314;51.114;6.900;2023-06-24T18:36:16;2.95;;;2.75;;
37451;SDS011;23314;51.114;6.900;2023-06-24T18:38:41;2.88;;;2.67;;
37451;SDS011;23314;51.114;6.900;2023-06-24T18:41:06;3.15;;;2.90;;
37451;SDS011;23314;51.114;6.900;2023-06-24T18:43:32;3.03;;;2.83;;
37451;SDS011;23314;51.114;6.900;2023-06-24T18:45:57;3.10;;;2.90;;
37451;SDS011;23314;51.114;6.900;2023-06-24T18:48:22;2.58;;;2.47;;
37451;SDS011;23314;51.114;6.900;2023-06-24T18:50:48;2.83;;;2.70;;
37451;SDS011;23314;51.114;6.900;2023-06-24T18:53:13;3.00;;;2.90;;
37451;SDS011;23314;51.114;6.900;2023-06-24T18:55:38;2.60;;;2.50;;
37451;SDS011;23314;51.114;6.900;2023-06-24T18:58:05;2.80;;;2.70;;
37451;SDS011;23314;51.114;6.900;2023-06-24T19:00:32;3.50;;;3.20;;
37451;SDS011;23314;51.114;6.900;2023-06-24T19:02:59;3.10;;;2.90;;
37451;SDS011;23314;51.114;6.900;2023-06-24T19:05:25;3.45;;;3.15;;
37451;SDS011;23314;51.114;6.900;2023-06-24T19:07:51;8.27;;;6.40;;
37451;SDS011;23314;51.114;6.900;2023-06-24T19:10:17;3.97;;;3.08;;
37451;SDS011;23314;51.114;6.900;2023-06-24T19:12:42;3.65;;;3.35;;
37451;SDS011;23314;51.114;6.900;2023-06-24T19:15:08;3.70;;;3.40;;
37451;SDS011;23314;51.114;6.900;2023-06-24T19:17:34;5.50;;;3.30;;
